createdAt,value
2018-02-22T00:01:44.231Z,57.00
2018-02-22T00:04:12.496Z,68.35
2018-02-22T00:06:40.012Z,56.45
2018-02-22T00:09:07.940Z,60.92
2018-02-22T00:11:36.207Z,60.28
2018-02-22T00:14:04.452Z,57.05
2018-02-22T00:16:31.946Z,57.95
2018-02-22T00:19:00.222Z,57.53
2018-02-22T00:21:28.474Z,55.60
2018-02-22T00:23:56.289Z,58.40
2018-02-22T00:26:23.779Z,63.47
2018-02-22T00:28:51.276Z,59.47
2018-02-22T00:31:19.843Z,54.58
2018-02-22T00:33:47.319Z,53.30
2018-02-22T00:36:15.556Z,56.63
2018-02-22T00:38:43.373Z,56.90
2018-02-22T00:41:10.851Z,57.17
2018-02-22T00:43:38.349Z,54.28
2018-02-22T00:46:06.252Z,53.97
2018-02-22T00:48:33.735Z,50.70
2018-02-22T00:51:01.214Z,57.03
2018-02-22T00:53:29.015Z,52.70
2018-02-22T00:55:57.265Z,55.58
2018-02-22T00:58:24.751Z,52.35
2018-02-22T01:00:53.324Z,51.42
2018-02-22T01:03:20.812Z,50.55
2018-02-22T01:05:48.296Z,55.88
2018-02-22T01:08:16.130Z,48.38
2018-02-22T01:10:43.638Z,57.53
2018-02-22T01:13:11.176Z,55.40
2018-02-22T01:15:38.999Z,59.58
2018-02-22T01:18:06.555Z,55.10
2018-02-22T01:20:34.812Z,55.28
2018-02-22T01:23:03.405Z,55.65
2018-02-22T01:25:31.648Z,55.90
2018-02-22T01:27:59.295Z,56.40
2018-02-22T01:30:26.799Z,51.15
2018-02-22T01:32:54.272Z,60.25
2018-02-22T01:35:21.790Z,52.88
2018-02-22T01:37:49.688Z,52.90
2018-02-22T01:40:17.948Z,58.67
2018-02-22T01:42:45.451Z,49.35
2018-02-22T01:45:13.231Z,55.80
2018-02-22T01:47:40.701Z,59.35
2018-02-22T01:50:08.199Z,53.13
2018-02-22T01:52:36.544Z,61.53
2018-02-22T01:55:04.056Z,59.28
2018-02-22T01:57:31.544Z,56.10
2018-02-22T01:59:59.706Z,54.13
2018-02-22T02:02:27.191Z,60.28
2018-02-22T02:04:54.688Z,50.72
2018-02-22T02:07:22.583Z,49.83
2018-02-22T02:09:50.215Z,61.50
2018-02-22T02:12:18.504Z,57.53
2018-02-22T02:14:46.358Z,56.13
2018-02-22T02:17:14.596Z,54.58
2018-02-22T02:19:42.085Z,59.00
2018-02-22T02:22:10.763Z,47.90
2018-02-22T02:24:39.065Z,51.95
2018-02-22T02:27:06.561Z,57.10
2018-02-22T02:29:34.328Z,60.97
2018-02-22T02:32:01.824Z,51.13
2018-02-22T02:34:30.060Z,58.33
2018-02-22T02:36:57.887Z,50.63
2018-02-22T02:39:25.403Z,57.08
2018-02-22T02:41:52.892Z,50.40
2018-02-22T02:44:21.476Z,51.97
2018-02-22T02:46:48.980Z,45.12
2018-02-22T02:49:16.518Z,52.28
2018-02-22T02:51:44.359Z,48.42
2018-02-22T02:54:12.645Z,52.58
2018-02-22T02:56:40.182Z,57.72
2018-02-22T02:59:08.431Z,45.97
2018-02-22T03:01:35.924Z,56.40
2018-02-22T03:04:04.188Z,46.80
2018-02-22T03:06:31.952Z,59.90
2018-02-22T03:09:00.189Z,53.03
2018-02-22T03:11:27.715Z,51.25
2018-02-22T03:13:55.551Z,47.17
2018-02-22T03:16:23.897Z,54.45
2018-02-22T03:18:51.544Z,50.42
2018-02-22T03:21:19.468Z,59.28
2018-02-22T03:23:46.979Z,47.58
2018-02-22T03:26:14.459Z,50.00
2018-02-22T03:28:43.146Z,50.00
2018-02-22T03:31:11.442Z,50.85
2018-02-22T03:33:38.932Z,57.72
2018-02-22T03:36:06.759Z,51.47
2018-02-22T03:38:35.027Z,60.55
2018-02-22T03:41:03.289Z,55.85
2018-02-22T03:43:30.787Z,53.50
2018-02-22T03:45:58.263Z,55.58
2018-02-22T03:48:25.755Z,48.83
2018-02-22T03:50:53.697Z,49.38
2018-02-22T03:53:21.194Z,52.95
2018-02-22T03:55:48.667Z,49.78
2018-02-22T03:58:17.357Z,50.05
2018-02-22T04:00:44.831Z,47.15
2018-02-22T04:03:12.316Z,49.67
2018-02-22T04:05:40.246Z,44.40
2018-02-22T04:08:07.746Z,42.13
2018-02-22T04:10:35.243Z,47.50
2018-02-22T04:13:03.852Z,48.30
2018-02-22T04:15:31.345Z,48.53
2018-02-22T04:17:58.891Z,46.33
2018-02-22T04:20:26.723Z,44.63
2018-02-22T04:22:54.981Z,44.05
2018-02-22T04:25:23.236Z,48.30
2018-02-22T04:27:50.763Z,41.50
2018-02-22T04:30:18.249Z,43.75
2018-02-22T04:32:45.783Z,49.28
2018-02-22T04:35:13.715Z,40.63
2018-02-22T04:37:41.301Z,51.30
2018-02-22T04:40:08.805Z,46.42
2018-02-22T04:42:36.687Z,46.75
2018-02-22T04:45:04.943Z,41.45
2018-02-22T04:47:32.456Z,44.75
2018-02-22T04:50:01.109Z,44.03
2018-02-22T04:52:29.381Z,40.83
2018-02-22T04:54:57.640Z,37.67
2018-02-22T04:57:26.240Z,41.83
2018-02-22T04:59:54.480Z,42.62
2018-02-22T05:02:23.619Z,43.87
2018-02-22T05:04:52.191Z,48.67
2018-02-22T05:07:20.439Z,45.92
2018-02-22T05:09:47.928Z,40.42
2018-02-22T05:12:16.451Z,44.42
2018-02-22T05:14:43.955Z,45.08
2018-02-22T05:17:12.278Z,39.58
2018-02-22T05:19:40.115Z,41.37
2018-02-22T05:22:07.595Z,47.58
2018-02-22T05:24:35.086Z,41.90
2018-02-22T05:27:02.588Z,39.78
2018-02-22T05:29:30.841Z,41.22
2018-02-22T05:31:58.336Z,49.83
2018-02-22T05:34:26.182Z,44.38
2018-02-22T05:36:54.494Z,42.50
2018-02-22T05:39:22.031Z,36.88
2018-02-22T05:41:49.900Z,35.95
2018-02-22T05:44:17.386Z,36.33
2018-02-22T05:46:44.887Z,40.08
2018-02-22T05:49:12.404Z,38.67
2018-02-22T05:51:39.912Z,43.80
2018-02-22T05:54:08.173Z,36.95
2018-02-22T05:56:35.956Z,35.90
2018-02-22T05:59:04.249Z,37.50
2018-02-22T06:01:31.784Z,40.10
2018-02-22T06:04:00.410Z,42.47
2018-02-22T06:06:27.882Z,34.42
2018-02-22T06:08:55.392Z,35.60
2018-02-22T06:11:23.982Z,36.55
2018-02-22T06:13:51.486Z,36.75
2018-02-22T06:16:19.025Z,38.40
2018-02-22T06:18:46.961Z,39.28
2018-02-22T06:21:15.243Z,38.17
2018-02-22T06:23:42.797Z,36.40
2018-02-22T06:26:11.402Z,36.25
2018-02-22T06:28:38.893Z,33.15
2018-02-22T06:31:07.192Z,36.92
2018-02-22T06:33:35.079Z,37.08
2018-02-22T06:36:03.348Z,34.67
2018-02-22T06:38:30.861Z,35.28
2018-02-22T06:40:58.667Z,42.58
2018-02-22T06:43:26.942Z,37.78
2018-02-22T06:45:54.452Z,34.33
2018-02-22T06:48:22.380Z,38.53
2018-02-22T06:50:49.893Z,38.50
2018-02-22T06:53:18.203Z,40.45
2018-02-22T06:55:46.779Z,37.03
2018-02-22T06:58:14.324Z,33.10
2018-02-22T07:00:41.806Z,32.65
2018-02-22T07:03:10.067Z,33.58
2018-02-22T07:05:37.551Z,36.58
2018-02-22T07:08:05.801Z,41.80
2018-02-22T07:10:33.302Z,27.95
2018-02-22T07:13:00.830Z,35.85
2018-02-22T07:15:28.355Z,35.17
2018-02-22T07:17:56.368Z,29.98
2018-02-22T07:20:23.861Z,34.00
2018-02-22T07:22:51.379Z,38.42
2018-02-22T07:25:20.063Z,37.13
2018-02-22T07:27:48.395Z,30.98
2018-02-22T07:30:16.059Z,31.58
2018-02-22T07:32:43.823Z,36.90
2018-02-22T07:35:11.292Z,30.12
2018-02-22T07:37:38.785Z,30.60
2018-02-22T07:40:07.369Z,30.95
2018-02-22T07:42:35.637Z,33.35
2018-02-22T07:45:03.880Z,29.10
2018-02-22T07:47:31.675Z,32.40
2018-02-22T07:49:59.915Z,31.33
2018-02-22T07:52:27.392Z,31.90
2018-02-22T07:54:55.202Z,29.60
2018-02-22T07:57:22.680Z,30.15
2018-02-22T07:59:50.162Z,28.98
2018-02-22T08:02:17.684Z,29.12
2018-02-22T08:04:45.160Z,29.05
2018-02-22T08:07:12.643Z,28.98
2018-02-22T08:09:41.240Z,30.75
2018-02-22T08:12:08.746Z,32.65
2018-02-22T08:14:36.223Z,31.10
2018-02-22T08:17:03.734Z,43.35
2018-02-22T08:22:04.420Z,27.00
2018-02-22T08:24:31.920Z,29.27
2018-02-22T08:27:00.187Z,37.80
2018-02-22T08:29:28.445Z,29.73
2018-02-22T08:31:55.968Z,28.12
2018-02-22T08:34:23.463Z,31.75
2018-02-22T08:36:50.992Z,27.35
2018-02-22T08:39:18.505Z,29.58
2018-02-22T08:41:46.003Z,29.87
2018-02-22T08:44:13.908Z,24.35
2018-02-22T08:46:41.387Z,30.52
2018-02-22T08:49:09.690Z,26.98
2018-02-22T08:51:37.524Z,25.95
2018-02-22T08:54:05.768Z,24.50
2018-02-22T08:56:33.345Z,23.20
2018-02-22T08:59:01.124Z,25.48
2018-02-22T09:01:28.726Z,24.37
2018-02-22T09:03:56.224Z,24.15
2018-02-22T09:06:24.020Z,25.08
2018-02-22T09:08:52.276Z,24.42
2018-02-22T09:11:19.770Z,31.42
2018-02-22T09:13:47.275Z,24.40
2018-02-22T09:16:14.810Z,26.37
2018-02-22T09:18:42.320Z,22.95
2018-02-22T09:21:09.824Z,25.95
2018-02-22T09:23:37.358Z,23.08
2018-02-22T09:26:04.903Z,22.98
2018-02-22T09:28:32.483Z,22.20
2018-02-22T09:30:59.987Z,21.60
2018-02-22T09:33:28.249Z,21.98
2018-02-22T09:35:55.743Z,21.60
2018-02-22T09:38:23.228Z,21.17
2018-02-22T09:40:50.757Z,21.67
2018-02-22T09:43:18.306Z,21.95
2018-02-22T09:45:45.796Z,21.65
2018-02-22T09:48:13.283Z,22.55
2018-02-22T09:50:40.784Z,19.67
2018-02-22T09:53:08.290Z,21.52
2018-02-22T09:55:35.792Z,20.67
2018-02-22T09:58:03.285Z,21.10
2018-02-22T10:00:30.835Z,22.17
2018-02-22T10:02:59.092Z,23.77
2018-02-22T10:05:27.358Z,25.30
2018-02-22T10:07:54.844Z,20.25
2018-02-22T10:10:22.330Z,19.75
2018-02-22T10:12:49.875Z,20.48
2018-02-22T10:15:17.316Z,20.52
2018-02-22T10:17:44.810Z,22.15
2018-02-22T10:20:12.323Z,23.75
2018-02-22T10:22:40.595Z,22.27
2018-02-22T10:25:08.880Z,20.90
2018-02-22T10:27:37.188Z,20.25
2018-02-22T10:30:04.711Z,22.05
2018-02-22T10:32:33.041Z,19.70
2018-02-22T10:35:00.872Z,21.40
2018-02-22T10:37:28.413Z,17.92
2018-02-22T10:39:56.664Z,18.62
2018-02-22T10:42:24.554Z,18.25
2018-02-22T10:44:52.864Z,17.48
2018-02-22T10:47:20.348Z,18.12
2018-02-22T10:49:48.271Z,19.37
2018-02-22T10:52:15.779Z,18.90
2018-02-22T10:54:43.277Z,17.92
2018-02-22T10:57:11.550Z,20.23
2018-02-22T10:59:39.827Z,20.00
2018-02-22T11:02:13.745Z,17.55
2018-02-22T11:04:41.254Z,18.02
2018-02-22T11:07:08.760Z,18.65
2018-02-22T11:09:36.257Z,17.15
2018-02-22T11:12:03.799Z,14.82
2018-02-22T11:14:31.340Z,19.30
2018-02-22T11:16:59.185Z,16.00
2018-02-22T11:19:27.452Z,20.77
2018-02-22T11:21:54.928Z,16.62
2018-02-22T11:24:23.495Z,17.75
2018-02-22T11:26:51.818Z,18.33
2018-02-22T11:29:19.285Z,18.62
2018-02-22T11:31:46.888Z,15.35
2018-02-22T11:34:15.171Z,20.92
2018-02-22T11:36:43.439Z,19.95
2018-02-22T11:39:11.784Z,20.58
2018-02-22T11:41:39.299Z,17.25
2018-02-22T11:44:06.798Z,14.85
2018-02-22T11:46:34.312Z,17.77
2018-02-22T11:49:01.861Z,18.87
2018-02-22T11:51:29.356Z,22.98
2018-02-22T11:53:56.868Z,20.62
2018-02-22T11:56:25.140Z,17.75
2018-02-22T11:58:53.449Z,17.75
2018-02-22T12:01:20.941Z,18.77
2018-02-22T12:03:48.552Z,16.05
2018-02-22T12:06:16.812Z,18.45
2018-02-22T12:08:44.320Z,16.23
2018-02-22T12:11:11.868Z,16.00
2018-02-22T12:13:39.361Z,17.15
2018-02-22T12:16:07.156Z,15.50
2018-02-22T12:18:35.427Z,18.87
2018-02-22T12:21:03.700Z,17.25
2018-02-22T12:23:32.301Z,16.12
2018-02-22T12:26:00.543Z,12.55
2018-02-22T12:28:28.060Z,13.75
2018-02-22T12:30:55.909Z,14.60
2018-02-22T12:33:23.432Z,16.75
2018-02-22T12:35:51.030Z,15.85
2018-02-22T12:38:18.512Z,20.17
2018-02-22T12:40:46.008Z,15.85
2018-02-22T12:43:13.485Z,19.10
2018-02-22T12:45:42.222Z,16.62
2018-02-22T12:48:09.770Z,17.25
2018-02-22T12:50:37.272Z,17.95
2018-02-22T12:53:05.545Z,16.70
2018-02-22T12:55:33.036Z,16.10
2018-02-22T12:58:00.522Z,17.70
2018-02-22T13:00:28.303Z,15.93
2018-02-22T13:02:55.774Z,14.90
2018-02-22T13:05:23.266Z,21.48
2018-02-22T13:07:50.949Z,17.20
2018-02-22T13:10:18.411Z,16.83
2018-02-22T13:12:45.896Z,16.35
2018-02-22T13:15:13.372Z,15.80
2018-02-22T13:17:40.860Z,16.90
2018-02-22T13:20:08.357Z,16.50
2018-02-22T13:22:36.335Z,12.90
2018-02-22T13:25:03.834Z,18.20
2018-02-22T13:27:32.081Z,16.00
2018-02-22T13:29:59.648Z,15.13
2018-02-22T13:32:27.154Z,15.27
2018-02-22T13:34:54.669Z,13.18
2018-02-22T13:51:01.142Z,15.48
2018-02-22T13:53:29.389Z,16.83
2018-02-22T13:55:56.910Z,16.33
2018-02-22T13:58:24.538Z,18.10
2018-02-22T14:01:04.710Z,15.30
2018-02-22T14:03:32.212Z,16.80
2018-02-22T14:05:59.704Z,20.05
2018-02-22T14:08:39.128Z,19.90
2018-02-22T14:11:07.377Z,21.17
2018-02-22T14:13:34.871Z,20.67
2018-02-22T14:16:03.553Z,22.37
2018-02-22T14:18:31.800Z,12.63
2018-02-22T14:20:59.294Z,18.35
2018-02-22T14:23:26.804Z,20.40
2018-02-22T14:25:54.331Z,20.25
2018-02-22T14:28:21.827Z,19.87
2018-02-22T14:30:49.298Z,22.92
2018-02-22T14:33:16.795Z,19.58
2018-02-22T14:35:44.288Z,23.92
2018-02-22T14:38:12.112Z,19.73
2018-02-22T14:40:39.752Z,19.10
2018-02-22T14:43:07.200Z,21.60
2018-02-22T14:45:34.707Z,15.48
2018-02-22T14:48:02.244Z,18.35
2018-02-22T14:50:29.724Z,17.62
2018-02-22T14:52:57.244Z,22.87
2018-02-22T14:55:25.499Z,18.50
2018-02-22T14:57:53.753Z,11.75
2018-02-22T15:00:21.561Z,19.95
2018-02-22T15:02:49.849Z,17.10
2018-02-22T15:05:18.138Z,18.95
2018-02-22T15:07:45.890Z,15.05
2018-02-22T15:10:13.388Z,12.82
2018-02-22T15:12:40.872Z,15.63
2018-02-22T15:15:08.372Z,16.45
2018-02-22T15:17:36.189Z,17.02
2018-02-22T15:20:03.668Z,15.15
2018-02-22T15:22:31.529Z,15.05
2018-02-22T15:24:59.050Z,10.82
2018-02-22T15:27:26.545Z,14.80
2018-02-22T15:29:54.844Z,12.65
2018-02-22T15:32:22.348Z,12.68
2018-02-22T15:34:49.886Z,11.90
2018-02-22T15:37:17.617Z,14.30
2018-02-22T15:39:45.900Z,7.78
2018-02-22T15:42:13.391Z,6.37
2018-02-22T15:44:41.206Z,11.75
2018-02-22T15:47:09.522Z,9.43
2018-02-22T15:49:36.983Z,8.27
2018-02-22T15:52:04.495Z,11.25
2018-02-22T15:54:32.775Z,11.45
2018-02-22T15:57:00.274Z,11.65
2018-02-22T15:59:28.054Z,9.43
2018-02-22T16:01:55.525Z,14.65
2018-02-22T16:04:23.049Z,11.68
2018-02-22T16:06:50.883Z,10.70
2018-02-22T16:09:19.120Z,12.07
2018-02-22T16:11:46.652Z,11.65
2018-02-22T16:14:14.464Z,10.65
2018-02-22T16:16:42.008Z,11.48
2018-02-22T16:19:09.574Z,15.68
2018-02-22T16:21:37.361Z,9.52
2018-02-22T16:24:05.824Z,14.00
2018-02-22T16:26:34.089Z,16.33
2018-02-22T16:29:01.974Z,13.20
2018-02-22T16:31:29.461Z,11.80
2018-02-22T16:33:56.982Z,12.45
2018-02-22T16:36:24.745Z,16.52
2018-02-22T16:38:52.240Z,17.58
2018-02-22T16:41:19.725Z,13.30
2018-02-22T16:43:47.232Z,16.55
2018-02-22T16:46:15.485Z,16.15
2018-02-22T16:48:42.987Z,12.27
2018-02-22T16:51:10.835Z,16.62
2018-02-22T16:53:39.116Z,16.40
2018-02-22T16:56:06.607Z,16.30
2018-02-22T16:58:34.122Z,17.20
2018-02-22T17:01:02.417Z,17.35
2018-02-22T17:03:29.894Z,15.32
2018-02-22T17:05:57.727Z,16.33
2018-02-22T17:08:25.985Z,16.83
2018-02-22T17:10:54.242Z,18.05
2018-02-22T17:13:22.049Z,15.10
2018-02-22T17:15:50.304Z,13.10
2018-02-22T17:18:18.570Z,18.05
2018-02-22T17:20:46.405Z,17.77
2018-02-22T17:23:13.889Z,15.23
2018-02-22T17:25:46.968Z,24.95
2018-02-22T17:28:20.225Z,19.83
2018-02-22T17:30:53.393Z,22.90
2018-02-22T17:33:21.691Z,17.95
2018-02-22T17:36:01.145Z,20.85
2018-02-22T17:38:29.510Z,21.98
2018-02-22T17:41:13.908Z,19.87
2018-02-22T17:43:41.381Z,18.87
2018-02-22T17:46:09.750Z,18.60
2018-02-22T17:48:37.524Z,24.90
2018-02-22T17:51:05.792Z,25.73
2018-02-22T17:53:33.318Z,24.42
2018-02-22T17:56:01.087Z,24.98
2018-02-22T17:58:28.570Z,30.95
2018-02-22T18:00:56.944Z,31.10
2018-02-22T18:03:24.700Z,24.80
2018-02-22T18:05:52.203Z,22.80
2018-02-22T18:08:19.681Z,25.30
2018-02-22T18:10:47.468Z,24.55
2018-02-22T18:13:15.001Z,23.33
2018-02-22T18:15:42.491Z,23.77
2018-02-22T18:18:10.325Z,26.05
2018-02-22T18:20:37.830Z,28.52
2018-02-22T18:23:05.334Z,27.77
2018-02-22T18:25:33.180Z,23.17
2018-02-22T18:28:00.678Z,21.98
2018-02-22T18:30:28.164Z,21.70
2018-02-22T18:32:55.655Z,20.52
2018-02-22T18:35:23.241Z,28.35
2018-02-22T18:37:56.732Z,30.17
2018-02-22T18:40:29.795Z,29.17
2018-02-22T18:42:58.417Z,30.00
2018-02-22T18:45:25.956Z,27.60
2018-02-22T18:47:54.200Z,26.27
2018-02-22T18:50:21.959Z,26.65
2018-02-22T18:52:49.458Z,25.50
2018-02-22T18:55:17.025Z,23.35
2018-02-22T18:57:44.509Z,28.02
2018-02-22T19:00:11.987Z,29.58
2018-02-22T19:02:39.511Z,24.95
2018-02-22T19:05:07.036Z,29.25
2018-02-22T19:07:34.516Z,29.35
2018-02-22T19:10:02.007Z,28.60
2018-02-22T19:12:29.510Z,29.90
2018-02-22T19:14:57.020Z,20.67
2018-02-22T19:17:24.498Z,28.90
2018-02-22T19:19:52.164Z,19.92
2018-02-22T19:22:20.432Z,24.52
2018-02-22T19:24:47.903Z,24.37
2018-02-22T19:27:16.204Z,27.62
2018-02-22T19:29:43.689Z,27.52
2018-02-22T19:32:11.226Z,26.83
2018-02-22T19:34:38.672Z,27.95
2018-02-22T19:37:06.228Z,28.48
2018-02-22T19:39:33.741Z,27.87
2018-02-22T19:42:01.556Z,29.42
2018-02-22T19:44:29.147Z,27.87
2018-02-22T19:46:56.627Z,24.42
2018-02-22T19:49:24.977Z,29.73
2018-02-22T19:51:52.566Z,25.88
2018-02-22T19:54:20.040Z,29.70
2018-02-22T19:56:48.636Z,23.30
2018-02-22T19:59:16.130Z,22.95
2018-02-22T20:01:43.620Z,27.58
2018-02-22T20:04:11.417Z,27.60
2018-02-22T20:06:39.688Z,28.20
2018-02-22T20:09:07.948Z,27.40
2018-02-22T20:11:35.793Z,26.67
2018-02-22T20:14:03.296Z,25.50
2018-02-22T20:16:30.784Z,26.92
2018-02-22T20:18:58.617Z,24.02
2018-02-22T20:21:26.138Z,27.48
2018-02-22T20:23:53.760Z,25.37
2018-02-22T20:26:21.631Z,32.72
2018-02-22T20:28:49.168Z,25.17
2018-02-22T20:31:16.654Z,32.05
2018-02-22T20:33:44.173Z,31.02
2018-02-22T20:36:11.658Z,31.23
2018-02-22T20:38:39.159Z,22.52
2018-02-22T20:41:06.669Z,20.42
2018-02-22T20:43:34.281Z,30.45
2018-02-22T20:46:01.769Z,30.40
2018-02-22T20:48:29.257Z,31.50
2018-02-22T20:51:08.561Z,30.75
2018-02-22T20:53:36.498Z,30.33
2018-02-22T20:56:03.983Z,25.92
2018-02-22T20:58:33.315Z,26.10
2018-02-22T21:01:00.843Z,28.48
2018-02-22T21:03:28.344Z,28.62
2018-02-22T21:05:55.823Z,23.65
2018-02-22T21:08:23.316Z,27.08
2018-02-22T21:10:50.901Z,24.40
2018-02-22T21:13:18.390Z,29.85
2018-02-22T21:15:45.896Z,27.15
2018-02-22T21:18:13.396Z,31.60
2018-02-22T21:20:40.898Z,28.65
2018-02-22T21:23:08.410Z,27.80
2018-02-22T21:25:35.888Z,25.95
2018-02-22T21:28:03.372Z,31.92
2018-02-22T21:30:31.134Z,33.58
2018-02-22T21:32:59.411Z,28.25
2018-02-22T21:35:27.648Z,29.33
2018-02-22T21:37:55.450Z,30.00
2018-02-22T21:40:22.977Z,28.05
2018-02-22T21:42:50.480Z,27.20
2018-02-22T21:45:17.977Z,31.58
2018-02-22T21:47:45.487Z,33.28
2018-02-22T21:50:12.967Z,34.78
2018-02-22T21:52:40.475Z,32.63
2018-02-22T21:55:07.965Z,31.42
2018-02-22T21:57:36.206Z,29.70
2018-02-22T22:00:04.089Z,32.75
2018-02-22T22:02:31.700Z,33.65
2018-02-22T22:04:59.192Z,31.87
2018-02-22T22:07:26.680Z,29.98
2018-02-22T22:09:54.218Z,34.28
2018-02-22T22:12:22.489Z,35.78
2018-02-22T22:14:50.268Z,34.30
2018-02-22T22:17:18.524Z,39.83
2018-02-22T22:19:46.856Z,35.70
2018-02-22T22:22:14.673Z,37.70
2018-02-22T22:24:42.967Z,40.25
2018-02-22T22:27:11.304Z,35.22
2018-02-22T22:29:39.104Z,33.63
2018-02-22T22:32:07.368Z,40.15
2018-02-22T22:34:35.652Z,35.72
2018-02-22T22:37:03.935Z,35.40
2018-02-22T22:39:32.184Z,36.88
2018-02-22T22:41:59.668Z,38.45
2018-02-22T22:44:28.252Z,38.35
2018-02-22T22:46:55.748Z,39.03
2018-02-22T22:49:23.221Z,34.33
2018-02-22T22:51:50.749Z,36.60
2018-02-22T22:54:18.256Z,35.50
2018-02-22T22:56:45.752Z,37.85
2018-02-22T22:59:13.613Z,38.30
2018-02-22T23:01:41.116Z,38.08
2018-02-22T23:04:08.604Z,35.20
2018-02-22T23:06:37.195Z,41.75
2018-02-22T23:09:05.476Z,42.60
2018-02-22T23:11:33.720Z,35.90
2018-02-22T23:14:01.307Z,39.17
2018-02-22T23:16:28.806Z,38.90
2018-02-22T23:18:56.353Z,34.15
2018-02-22T23:21:24.178Z,40.35
2018-02-22T23:23:52.446Z,36.30
2018-02-22T23:26:19.943Z,35.63
2018-02-22T23:28:47.788Z,39.65
2018-02-22T23:31:16.049Z,38.22
2018-02-22T23:33:43.523Z,35.80
2018-02-22T23:36:12.215Z,36.78
2018-02-22T23:38:40.467Z,46.05
2018-02-22T23:41:10.687Z,37.20
2018-02-22T23:43:38.193Z,41.33
2018-02-22T23:46:05.692Z,41.83
2018-02-22T23:48:33.192Z,41.05
2018-02-22T23:51:01.043Z,43.53
2018-02-22T23:53:29.316Z,40.12
2018-02-22T23:55:56.823Z,37.97
2018-02-22T23:58:24.854Z,40.90
